Wevertown, New York
Current Conditions -  °F | °C
As of 4:53 AM on Thursday 29 Jan 2015 (Local Time) from KGFL Reporting Station
Clear Clear  
Wind Chill: -8°   Ceiling: Unl
Heat Index: -8°   Visibility: 10mi
Dew Point: -14°   Wind: 0mph
Humidity: 75%   Direction: NA
Pressure: 30.33"   Gusts: NA
Location:  43.63°N, 73.94°W
Report Text: KGFL 290953Z AUTO 00000KT 10SM CLR M22/M26 A3033 RMK AO2 SLP288 T12221256
Loading
Personal Weather Stations






























Interactive Weather Map New forecast layout! Learn more

10-Day Weather Forecast

Advertisements
Track Severe Weather on mobile